createdAt,value
2023-01-30T00:01:58.933Z,6.72
2023-01-30T00:04:25.821Z,6.86
2023-01-30T00:06:53.419Z,6.89
2023-01-30T00:09:21.102Z,6.56
2023-01-30T00:11:48.114Z,6.40
2023-01-30T00:14:15.539Z,6.30
2023-01-30T00:16:43.275Z,6.80
2023-01-30T00:19:10.518Z,6.82
2023-01-30T00:21:37.484Z,6.82
2023-01-30T00:24:04.499Z,6.71
2023-01-30T00:26:32.689Z,6.19
2023-01-30T00:28:59.458Z,6.77
2023-01-30T00:31:26.719Z,6.66
2023-01-30T00:33:54.111Z,6.47
2023-01-30T00:36:22.144Z,6.94
2023-01-30T00:38:49.059Z,7.03
2023-01-30T00:41:17.621Z,7.17
2023-01-30T00:44:05.064Z,6.87
2023-01-30T00:46:52.209Z,6.27
2023-01-30T00:49:20.053Z,6.67
2023-01-30T00:51:47.673Z,7.00
2023-01-30T00:54:14.736Z,6.85
2023-01-30T00:56:42.780Z,6.66
2023-01-30T00:59:09.836Z,7.16
2023-01-30T01:01:38.158Z,6.67
2023-01-30T01:04:06.643Z,6.98
2023-01-30T01:06:33.799Z,6.88
2023-01-30T01:09:04.254Z,7.31
2023-01-30T01:11:33.375Z,6.86
2023-01-30T01:14:02.446Z,6.66
2023-01-30T01:16:30.709Z,6.88
2023-01-30T01:18:57.892Z,6.79
2023-01-30T01:21:25.153Z,7.17
2023-01-30T01:23:53.563Z,7.18
2023-01-30T01:26:20.688Z,7.36
2023-01-30T01:28:47.995Z,6.95
2023-01-30T01:31:16.592Z,7.17
2023-01-30T01:33:43.644Z,7.31
2023-01-30T01:36:10.170Z,7.28
2023-01-30T01:38:36.732Z,7.43
2023-01-30T01:41:03.276Z,7.50
2023-01-30T01:43:32.782Z,7.46
2023-01-30T01:46:04.353Z,7.27
2023-01-30T01:48:42.032Z,7.23
2023-01-30T01:51:22.899Z,7.43
2023-01-30T01:53:55.049Z,7.02
2023-01-30T01:56:23.378Z,7.66
2023-01-30T01:58:56.366Z,7.34
2023-01-30T02:01:23.076Z,7.52
2023-01-30T02:03:53.577Z,7.57
2023-01-30T02:06:20.389Z,7.55
2023-01-30T02:08:52.827Z,7.42
2023-01-30T02:12:06.478Z,7.43
2023-01-30T02:14:34.080Z,7.80
2023-01-30T02:17:00.541Z,7.93
2023-01-30T02:19:58.733Z,8.23
2023-01-30T02:22:54.378Z,7.86
2023-01-30T02:25:51.915Z,7.89
2023-01-30T02:28:46.431Z,7.26
2023-01-30T02:31:28.459Z,7.48
2023-01-30T02:34:26.139Z,7.83
2023-01-30T02:37:09.814Z,7.84
2023-01-30T02:40:05.561Z,7.17
2023-01-30T02:42:37.021Z,7.27
2023-01-30T02:45:18.919Z,8.03
2023-01-30T02:47:50.586Z,7.56
2023-01-30T02:50:24.307Z,7.47
2023-01-30T02:52:51.266Z,7.47
2023-01-30T02:55:26.460Z,7.66
2023-01-30T02:57:52.923Z,7.39
2023-01-30T03:00:25.037Z,7.25
2023-01-30T03:03:07.309Z,6.85
2023-01-30T03:05:45.915Z,6.95
2023-01-30T03:08:31.132Z,7.10
2023-01-30T03:11:06.229Z,6.98
2023-01-30T03:13:49.172Z,7.21
2023-01-30T03:16:31.855Z,6.76
2023-01-30T03:19:00.291Z,7.33
2023-01-30T03:21:26.864Z,7.36
2023-01-30T03:23:53.362Z,7.05
2023-01-30T03:26:28.031Z,7.09
2023-01-30T03:28:54.822Z,7.38
2023-01-30T03:31:21.355Z,7.76
2023-01-30T03:33:48.078Z,7.52
2023-01-30T03:36:15.109Z,7.45
2023-01-30T03:38:41.581Z,7.63
2023-01-30T03:41:08.374Z,7.68
2023-01-30T03:43:34.837Z,7.30
2023-01-30T03:46:01.351Z,7.30
2023-01-30T03:48:28.649Z,7.37
2023-01-30T03:50:55.245Z,7.42
2023-01-30T03:53:21.804Z,7.13
2023-01-30T03:55:48.259Z,7.45
2023-01-30T03:58:14.861Z,7.61
2023-01-30T04:00:41.381Z,7.32
2023-01-30T04:03:08.064Z,7.03
2023-01-30T04:05:34.514Z,7.29
2023-01-30T04:08:01.010Z,7.16
2023-01-30T04:10:27.586Z,7.47
2023-01-30T04:12:54.252Z,7.66
2023-01-30T04:15:20.862Z,7.38
2023-01-30T04:17:48.437Z,7.59
2023-01-30T04:20:15.269Z,7.53
2023-01-30T04:22:41.786Z,7.65
2023-01-30T04:25:08.800Z,7.04
2023-01-30T04:27:35.279Z,7.55
2023-01-30T04:30:01.794Z,7.37
2023-01-30T04:32:28.284Z,7.48
2023-01-30T04:34:54.753Z,7.34
2023-01-30T04:37:21.250Z,7.46
2023-01-30T04:39:47.707Z,7.61
2023-01-30T04:42:14.231Z,6.80
2023-01-30T04:44:40.681Z,6.98
2023-01-30T04:47:07.228Z,7.05
2023-01-30T04:49:33.667Z,7.05
2023-01-30T04:52:00.204Z,7.15
2023-01-30T04:54:26.713Z,7.17
2023-01-30T04:56:53.190Z,7.23
2023-01-30T04:59:19.626Z,7.29
2023-01-30T05:01:46.346Z,6.84
2023-01-30T05:04:13.186Z,7.46
2023-01-30T05:06:39.731Z,6.91
2023-01-30T05:09:06.717Z,6.92
2023-01-30T05:11:33.409Z,6.67
2023-01-30T05:13:59.994Z,6.73
2023-01-30T05:16:26.570Z,6.80
2023-01-30T05:18:53.031Z,6.35
2023-01-30T05:21:21.944Z,6.59
2023-01-30T05:23:48.690Z,6.76
2023-01-30T05:26:15.846Z,6.79
2023-01-30T05:28:42.501Z,6.84
2023-01-30T05:31:11.544Z,6.65
2023-01-30T05:33:38.888Z,6.95
2023-01-30T05:36:05.747Z,6.70
2023-01-30T05:38:32.338Z,6.27
2023-01-30T05:41:01.160Z,6.28
2023-01-30T05:43:27.920Z,5.90
2023-01-30T05:45:55.606Z,6.63
2023-01-30T05:48:22.835Z,5.98
2023-01-30T05:50:51.590Z,5.96
2023-01-30T05:53:19.326Z,6.13
2023-01-30T05:55:45.850Z,6.55
2023-01-30T05:58:12.568Z,6.09
2023-01-30T06:00:39.186Z,6.35
2023-01-30T06:03:05.650Z,6.38
2023-01-30T06:05:32.124Z,6.31
2023-01-30T06:07:58.602Z,6.62
2023-01-30T06:10:25.039Z,6.31
2023-01-30T06:12:51.497Z,6.16
2023-01-30T06:15:18.330Z,6.11
2023-01-30T06:17:45.061Z,6.06
2023-01-30T06:20:14.563Z,6.06
2023-01-30T06:22:41.070Z,6.30
2023-01-30T06:25:07.930Z,6.27
2023-01-30T06:27:34.452Z,6.44
2023-01-30T06:30:00.938Z,6.70
2023-01-30T06:32:27.455Z,6.39
2023-01-30T06:34:53.907Z,6.66
2023-01-30T06:37:20.754Z,6.55
2023-01-30T06:39:47.212Z,6.40
2023-01-30T06:42:13.649Z,6.62
2023-01-30T06:44:40.093Z,6.73
2023-01-30T06:47:06.555Z,6.61
2023-01-30T06:49:33.176Z,6.22
2023-01-30T06:51:59.620Z,6.68
2023-01-30T06:54:26.093Z,5.74
2023-01-30T06:56:52.527Z,6.05
2023-01-30T06:59:19.089Z,6.32
2023-01-30T07:01:45.570Z,5.84
2023-01-30T07:04:12.120Z,5.99
2023-01-30T07:06:40.079Z,5.86
2023-01-30T07:09:06.717Z,6.07
2023-01-30T07:11:33.154Z,5.93
2023-01-30T07:13:59.638Z,6.14
2023-01-30T07:16:29.353Z,6.58
2023-01-30T07:18:58.567Z,6.12
2023-01-30T07:21:27.249Z,6.00
2023-01-30T07:23:53.780Z,6.56
2023-01-30T07:26:20.261Z,6.20
2023-01-30T07:28:46.843Z,6.36
2023-01-30T07:31:13.282Z,6.61
2023-01-30T07:33:39.735Z,6.49
2023-01-30T07:36:06.528Z,7.00
2023-01-30T07:38:32.983Z,6.84
2023-01-30T07:40:59.416Z,6.36
2023-01-30T07:43:25.999Z,6.56
2023-01-30T07:45:52.477Z,6.67
2023-01-30T07:48:19.573Z,6.73
2023-01-30T07:50:46.425Z,6.46
2023-01-30T07:53:14.998Z,6.77
2023-01-30T07:55:41.944Z,6.56
2023-01-30T07:58:12.276Z,6.94
2023-01-30T08:00:38.729Z,6.88
2023-01-30T08:03:05.174Z,6.92
2023-01-30T08:05:31.978Z,6.91
2023-01-30T08:07:58.544Z,6.58
2023-01-30T08:10:25.058Z,6.82
2023-01-30T08:12:51.804Z,6.45
2023-01-30T08:15:18.411Z,6.59
2023-01-30T08:17:44.850Z,6.80
2023-01-30T08:20:11.666Z,7.47
2023-01-30T08:22:38.245Z,7.31
2023-01-30T08:25:05.220Z,6.83
2023-01-30T08:27:31.797Z,6.81
2023-01-30T08:29:58.312Z,6.91
2023-01-30T08:32:24.879Z,7.18
2023-01-30T08:34:51.355Z,7.36
2023-01-30T08:37:17.821Z,6.73
2023-01-30T08:39:44.287Z,7.31
2023-01-30T08:42:10.767Z,7.23
2023-01-30T08:44:37.222Z,7.33
2023-01-30T08:47:03.716Z,6.50
2023-01-30T08:49:30.168Z,6.92
2023-01-30T08:51:56.611Z,6.30
2023-01-30T08:54:23.226Z,6.76
2023-01-30T08:56:49.675Z,6.09
2023-01-30T08:59:16.160Z,6.07
2023-01-30T09:01:42.627Z,6.30
2023-01-30T09:04:09.086Z,6.02
2023-01-30T09:06:35.552Z,6.39
2023-01-30T09:09:01.996Z,6.13
2023-01-30T09:11:28.456Z,6.56
2023-01-30T09:13:54.947Z,6.80
2023-01-30T09:16:21.433Z,6.41
2023-01-30T09:18:48.489Z,6.61
2023-01-30T09:21:15.115Z,6.76
2023-01-30T09:23:41.687Z,6.16
2023-01-30T09:26:08.457Z,6.68
2023-01-30T09:28:35.309Z,6.45
2023-01-30T09:31:02.197Z,6.36
2023-01-30T09:33:28.899Z,5.76
2023-01-30T09:35:55.760Z,5.47
2023-01-30T09:38:22.294Z,5.43
2023-01-30T09:41:32.045Z,5.74
2023-01-30T09:44:23.503Z,5.16
2023-01-30T09:47:03.860Z,5.56
2023-01-30T09:50:20.441Z,5.18
2023-01-30T09:52:58.336Z,5.49
2023-01-30T09:55:27.228Z,5.22
2023-01-30T09:57:53.824Z,5.17
2023-01-30T10:00:26.322Z,5.55
2023-01-30T10:03:11.958Z,5.79
2023-01-30T10:05:43.742Z,5.79
2023-01-30T10:08:37.175Z,6.65
2023-01-30T10:11:09.975Z,6.04
2023-01-30T10:14:02.400Z,5.33
2023-01-30T10:16:36.773Z,5.05
2023-01-30T10:19:35.309Z,5.57
2023-01-30T10:22:14.937Z,5.57
2023-01-30T10:25:02.166Z,5.95
2023-01-30T10:27:30.720Z,5.69
2023-01-30T10:30:00.382Z,5.48
2023-01-30T10:32:31.876Z,5.58
2023-01-30T10:35:19.575Z,5.93
2023-01-30T10:38:19.903Z,5.92
2023-01-30T10:41:13.713Z,5.84
2023-01-30T10:43:43.819Z,5.33
2023-01-30T10:46:10.372Z,5.24
2023-01-30T10:48:45.429Z,5.27
2023-01-30T10:51:25.495Z,5.39
2023-01-30T10:53:57.677Z,5.58
2023-01-30T10:57:18.080Z,5.37
2023-01-30T11:00:13.784Z,5.75
2023-01-30T11:03:04.035Z,5.39
2023-01-30T11:05:39.689Z,5.72
2023-01-30T11:08:19.775Z,5.45
2023-01-30T11:10:46.247Z,5.41
2023-01-30T11:13:21.113Z,5.36
2023-01-30T11:15:50.248Z,5.46
2023-01-30T11:19:17.578Z,5.28
2023-01-30T11:21:10.894Z,6.08
2023-01-30T11:23:42.480Z,5.49
2023-01-30T11:26:47.850Z,5.83
2023-01-30T11:29:37.699Z,5.92
2023-01-30T11:32:06.848Z,6.07
2023-01-30T11:34:34.433Z,6.59
2023-01-30T11:37:14.087Z,6.76
2023-01-30T11:39:48.467Z,6.32
2023-01-30T11:42:14.922Z,6.66
2023-01-30T11:44:42.492Z,6.83
2023-01-30T11:47:23.895Z,6.72
2023-01-30T11:50:02.869Z,6.66
2023-01-30T11:52:42.594Z,6.55
2023-01-30T11:55:14.112Z,6.75
2023-01-30T11:57:43.895Z,6.50
2023-01-30T12:00:39.525Z,6.77
2023-01-30T12:03:10.853Z,6.58
2023-01-30T12:05:44.947Z,6.68
2023-01-30T12:08:31.197Z,6.53
2023-01-30T12:11:52.919Z,7.20
2023-01-30T12:14:28.318Z,6.53
2023-01-30T12:17:10.141Z,6.61
2023-01-30T12:19:54.843Z,6.60
2023-01-30T12:22:51.907Z,6.70
2023-01-30T12:25:27.876Z,6.75
2023-01-30T12:28:04.999Z,6.77
2023-01-30T12:30:45.581Z,6.59
2023-01-30T12:33:15.766Z,6.97
2023-01-30T12:36:01.376Z,6.77
2023-01-30T12:38:40.076Z,6.68
2023-01-30T12:41:26.226Z,6.87
2023-01-30T12:43:55.686Z,6.97
2023-01-30T12:46:31.234Z,7.04
2023-01-30T12:49:11.573Z,7.19
2023-01-30T12:51:44.603Z,7.75
2023-01-30T12:54:34.742Z,6.91
2023-01-30T12:57:18.892Z,6.88
2023-01-30T12:59:58.576Z,6.95
2023-01-30T13:02:36.447Z,7.03
2023-01-30T13:05:21.401Z,7.31
2023-01-30T13:08:03.481Z,7.22
2023-01-30T13:10:43.854Z,6.74
2023-01-30T13:13:18.133Z,6.16
2023-01-30T13:16:06.310Z,6.41
2023-01-30T13:18:38.730Z,6.30
2023-01-30T13:21:10.567Z,6.08
2023-01-30T13:23:55.375Z,6.90
2023-01-30T13:26:24.754Z,6.36
2023-01-30T13:28:55.989Z,6.72
2023-01-30T13:31:25.098Z,5.99
2023-01-30T13:34:02.535Z,6.32
2023-01-30T13:36:39.979Z,6.35
2023-01-30T13:39:12.858Z,6.44
2023-01-30T13:41:48.869Z,6.55
2023-01-30T13:44:20.608Z,6.67
2023-01-30T13:46:47.802Z,7.09
2023-01-30T13:49:39.810Z,6.84
2023-01-30T13:52:18.759Z,6.99
2023-01-30T13:55:10.435Z,7.27
2023-01-30T13:57:50.113Z,6.79
2023-01-30T14:00:32.846Z,7.09
2023-01-30T14:03:08.717Z,7.54
2023-01-30T14:05:59.107Z,6.90
2023-01-30T14:08:27.587Z,7.17
2023-01-30T14:10:55.833Z,6.99
2023-01-30T14:13:23.363Z,7.22
2023-01-30T14:15:59.761Z,7.09
2023-01-30T14:18:36.126Z,7.03
2023-01-30T14:21:22.672Z,6.91
2023-01-30T14:23:57.938Z,7.37
2023-01-30T14:26:47.577Z,7.06
2023-01-30T14:29:42.015Z,6.98
2023-01-30T14:32:38.678Z,7.16
2023-01-30T14:35:05.971Z,7.27
2023-01-30T14:37:35.554Z,7.43
2023-01-30T14:40:02.874Z,7.47
2023-01-30T14:42:31.430Z,7.10
2023-01-30T14:44:59.468Z,7.43
2023-01-30T14:47:33.971Z,7.23
2023-01-30T14:50:20.116Z,6.76
2023-01-30T14:52:47.235Z,7.29
2023-01-30T14:55:19.862Z,7.29
2023-01-30T14:57:54.598Z,7.14
2023-01-30T15:00:25.313Z,7.43
2023-01-30T15:02:57.484Z,7.11
2023-01-30T15:05:31.201Z,7.06
2023-01-30T15:08:15.650Z,7.29
2023-01-30T15:10:54.187Z,7.61
2023-01-30T15:13:47.309Z,7.24
2023-01-30T15:16:29.151Z,7.06
2023-01-30T15:19:04.715Z,7.37
2023-01-30T15:21:41.169Z,7.23
2023-01-30T15:24:32.219Z,7.52
2023-01-30T15:27:13.208Z,7.46
2023-01-30T15:30:01.417Z,7.76
2023-01-30T15:32:29.705Z,7.33
2023-01-30T15:35:15.902Z,7.08
2023-01-30T15:37:57.853Z,6.93
2023-01-30T15:40:27.113Z,6.92
2023-01-30T15:43:19.421Z,6.59
2023-01-30T15:46:11.303Z,6.77
2023-01-30T15:48:47.253Z,6.80
2023-01-30T15:51:15.788Z,6.78
2023-01-30T15:53:44.865Z,6.83
2023-01-30T15:56:18.134Z,6.84
2023-01-30T15:58:44.897Z,6.74
2023-01-30T16:01:18.132Z,6.66
2023-01-30T16:03:44.659Z,6.43
2023-01-30T16:06:35.057Z,6.54
2023-01-30T16:09:21.387Z,6.64
2023-01-30T16:11:48.211Z,6.45
2023-01-30T16:14:20.264Z,6.57
2023-01-30T16:16:55.640Z,6.41
2023-01-30T16:19:33.311Z,6.86
2023-01-30T16:22:05.508Z,6.77
2023-01-30T16:24:34.459Z,6.72
2023-01-30T16:27:05.022Z,6.03
2023-01-30T16:29:33.889Z,5.90
2023-01-30T16:32:00.594Z,5.96
2023-01-30T16:34:36.198Z,6.30
2023-01-30T16:37:21.798Z,6.11
2023-01-30T16:40:03.705Z,5.95
2023-01-30T16:42:31.204Z,6.01
2023-01-30T16:45:35.604Z,6.50
2023-01-30T16:48:17.553Z,6.34
2023-01-30T16:50:46.071Z,6.38
2023-01-30T16:53:16.476Z,6.84
2023-01-30T16:55:53.414Z,6.32
2023-01-30T16:58:19.946Z,6.32
2023-01-30T17:00:50.318Z,6.38
2023-01-30T17:03:26.748Z,6.39
2023-01-30T17:05:53.319Z,6.24
2023-01-30T17:08:47.689Z,6.58
2023-01-30T17:11:31.993Z,6.40
2023-01-30T17:14:18.866Z,6.31
2023-01-30T17:17:09.884Z,6.31
2023-01-30T17:19:37.157Z,6.56
2023-01-30T17:22:06.553Z,6.32
2023-01-30T17:24:35.455Z,6.37
2023-01-30T17:27:03.401Z,6.44
2023-01-30T17:29:42.876Z,6.49
2023-01-30T17:32:14.246Z,6.00
2023-01-30T17:35:17.876Z,6.31
2023-01-30T17:38:25.252Z,6.07
2023-01-30T17:40:51.718Z,6.05
2023-01-30T17:43:18.189Z,5.91
2023-01-30T17:45:44.714Z,6.05
2023-01-30T17:48:12.270Z,5.86
2023-01-30T17:50:38.758Z,5.80
2023-01-30T17:53:05.521Z,5.93
2023-01-30T17:55:35.464Z,6.06
2023-01-30T17:58:01.888Z,5.66
2023-01-30T18:00:31.526Z,5.78
2023-01-30T18:03:00.199Z,5.62
2023-01-30T18:05:27.420Z,5.84
2023-01-30T18:07:53.870Z,5.70
2023-01-30T18:10:28.573Z,5.80
2023-01-30T18:13:19.217Z,5.64
2023-01-30T18:15:49.416Z,5.84
2023-01-30T18:18:19.889Z,5.49
2023-01-30T18:21:16.548Z,5.41
2023-01-30T18:23:45.763Z,5.50
2023-01-30T18:26:15.120Z,5.50
2023-01-30T18:28:53.188Z,5.28
2023-01-30T18:31:23.524Z,5.51
2023-01-30T18:33:57.131Z,5.42
2023-01-30T18:36:27.304Z,5.57
2023-01-30T18:38:56.983Z,5.35
2023-01-30T18:41:28.114Z,5.59
2023-01-30T18:43:59.620Z,5.33
2023-01-30T18:46:31.525Z,5.46
2023-01-30T18:49:00.716Z,5.51
2023-01-30T18:51:36.528Z,5.93
2023-01-30T18:54:04.353Z,5.71
2023-01-30T18:56:33.654Z,5.40
2023-01-30T18:59:10.088Z,5.29
2023-01-30T19:01:57.553Z,5.11
2023-01-30T19:04:30.150Z,5.21
2023-01-30T19:06:58.774Z,5.25
2023-01-30T19:09:37.484Z,5.18
2023-01-30T19:12:25.388Z,5.35
2023-01-30T19:14:52.472Z,5.34
2023-01-30T19:17:23.787Z,5.09
2023-01-30T19:20:00.868Z,5.29
2023-01-30T19:22:32.694Z,5.54
2023-01-30T19:25:11.207Z,5.52
2023-01-30T19:27:40.083Z,5.39
2023-01-30T19:30:09.234Z,5.08
2023-01-30T19:32:38.744Z,4.95
2023-01-30T19:35:05.742Z,5.56
2023-01-30T19:37:32.272Z,5.13
2023-01-30T19:39:58.749Z,5.22
2023-01-30T19:42:25.256Z,5.19
2023-01-30T19:44:51.770Z,5.52
2023-01-30T19:47:21.753Z,5.29
2023-01-30T19:49:48.343Z,5.44
2023-01-30T19:52:14.800Z,5.66
2023-01-30T19:54:41.324Z,5.30
2023-01-30T19:57:07.875Z,5.28
2023-01-30T19:59:38.693Z,5.44
2023-01-30T20:02:06.288Z,5.25
2023-01-30T20:04:32.796Z,5.41
2023-01-30T20:06:59.306Z,5.21
2023-01-30T20:09:26.213Z,5.55
2023-01-30T20:12:14.960Z,4.99
2023-01-30T20:14:41.491Z,5.59
2023-01-30T20:17:07.991Z,5.22
2023-01-30T20:19:34.506Z,5.32
2023-01-30T20:22:06.636Z,5.70
2023-01-30T20:24:33.114Z,4.80
2023-01-30T20:26:59.655Z,4.62
2023-01-30T20:29:26.172Z,4.99
2023-01-30T20:31:54.224Z,4.80
2023-01-30T20:34:20.969Z,4.81
2023-01-30T20:36:47.529Z,4.82
2023-01-30T20:39:16.084Z,5.33
2023-01-30T20:41:43.033Z,4.53
2023-01-30T20:44:12.532Z,5.13
2023-01-30T20:46:42.515Z,4.82
2023-01-30T20:49:14.187Z,4.84
2023-01-30T20:51:40.927Z,4.84
2023-01-30T20:54:09.083Z,4.93
2023-01-30T20:56:38.345Z,4.60
2023-01-30T20:59:06.856Z,5.08
2023-01-30T21:01:33.783Z,5.09
2023-01-30T21:04:05.624Z,4.71
2023-01-30T21:06:37.027Z,5.24
2023-01-30T21:09:12.666Z,5.41
2023-01-30T21:11:39.668Z,4.90
2023-01-30T21:14:06.361Z,4.65
2023-01-30T21:16:34.060Z,4.72
2023-01-30T21:19:04.113Z,4.67
2023-01-30T21:21:33.691Z,4.69
2023-01-30T21:24:02.607Z,4.75
2023-01-30T21:26:30.583Z,4.66
2023-01-30T21:28:57.371Z,4.71
2023-01-30T21:31:26.332Z,4.68
2023-01-30T21:33:53.108Z,4.81
2023-01-30T21:40:18.772Z,5.14
2023-01-30T21:43:03.828Z,5.03
2023-01-30T21:45:30.702Z,4.71
2023-01-30T21:47:57.185Z,4.93
2023-01-30T21:50:23.796Z,4.70
2023-01-30T21:52:50.237Z,5.02
2023-01-30T21:55:16.916Z,4.51
2023-01-30T21:57:43.498Z,4.62
2023-01-30T22:00:10.558Z,4.75
2023-01-30T22:02:37.448Z,4.67
2023-01-30T22:05:04.442Z,4.40
2023-01-30T22:07:31.356Z,4.48
2023-01-30T22:09:57.917Z,4.30
2023-01-30T22:12:25.134Z,4.61
2023-01-30T22:14:51.585Z,4.67
2023-01-30T22:17:18.087Z,4.46
2023-01-30T22:19:45.394Z,4.49
2023-01-30T22:22:11.856Z,4.58
2023-01-30T22:24:38.629Z,4.67
2023-01-30T22:27:05.129Z,4.20
2023-01-30T22:29:31.590Z,4.49
2023-01-30T22:32:03.429Z,4.94
2023-01-30T22:34:29.923Z,4.48
2023-01-30T22:36:57.847Z,4.97
2023-01-30T22:39:24.315Z,4.95
2023-01-30T22:41:50.886Z,4.78
2023-01-30T22:44:17.344Z,5.35
2023-01-30T22:46:43.875Z,4.80
2023-01-30T22:49:10.744Z,4.94
2023-01-30T22:51:39.727Z,4.83
2023-01-30T22:54:09.382Z,4.85
2023-01-30T22:56:38.448Z,4.98
2023-01-30T22:59:05.798Z,5.50
2023-01-30T23:01:34.675Z,5.00
2023-01-30T23:04:04.293Z,5.08
2023-01-30T23:06:31.826Z,4.98
2023-01-30T23:08:59.521Z,5.25
2023-01-30T23:11:30.946Z,5.40
2023-01-30T23:14:04.132Z,4.86
2023-01-30T23:16:32.958Z,4.84
2023-01-30T23:18:59.466Z,4.82
2023-01-30T23:21:28.437Z,4.96
2023-01-30T23:23:59.031Z,5.08
2023-01-30T23:26:29.433Z,4.63
2023-01-30T23:28:56.864Z,4.72
2023-01-30T23:31:26.306Z,4.66
2023-01-30T23:34:01.100Z,4.78
2023-01-30T23:36:28.265Z,4.88
2023-01-30T23:38:55.903Z,4.93
2023-01-30T23:41:24.492Z,5.21
2023-01-30T23:43:51.942Z,5.12
2023-01-30T23:46:22.683Z,5.31
2023-01-30T23:48:51.694Z,4.98
2023-01-30T23:51:20.325Z,5.23
2023-01-30T23:53:47.411Z,5.27
2023-01-30T23:56:14.848Z,5.20
2023-01-30T23:58:42.047Z,4.93
